sensor_id;sensor_type;location;lat;lon;timestamp;P1;durP1;ratioP1;P2;durP2;ratioP2
74660;SDS011;63191;39.566;2.654;2023-05-06T00:00:10;3.70;;;1.10;;
74660;SDS011;63191;39.566;2.654;2023-05-06T00:02:37;4.90;;;1.40;;
74660;SDS011;63191;39.566;2.654;2023-05-06T00:05:03;4.10;;;0.90;;
74660;SDS011;63191;39.566;2.654;2023-05-06T00:07:29;3.50;;;0.80;;
74660;SDS011;63191;39.566;2.654;2023-05-06T00:09:55;3.70;;;1.00;;
74660;SDS011;63191;39.566;2.654;2023-05-06T00:12:20;4.90;;;0.80;;
74660;SDS011;63191;39.566;2.654;2023-05-06T00:14:46;4.60;;;1.00;;
74660;SDS011;63191;39.566;2.654;2023-05-06T00:17:12;3.70;;;1.10;;
74660;SDS011;63191;39.566;2.654;2023-05-06T00:19:38;3.10;;;0.90;;
74660;SDS011;63191;39.566;2.654;2023-05-06T00:22:03;4.30;;;1.00;;
74660;SDS011;63191;39.566;2.654;2023-05-06T00:24:29;4.80;;;0.90;;
74660;SDS011;63191;39.566;2.654;2023-05-06T00:26:55;3.00;;;0.70;;
74660;SDS011;63191;39.566;2.654;2023-05-06T00:29:20;4.60;;;1.10;;
74660;SDS011;63191;39.566;2.654;2023-05-06T00:31:46;4.60;;;0.80;;
74660;SDS011;63191;39.566;2.654;2023-05-06T00:34:12;4.30;;;0.90;;
74660;SDS011;63191;39.566;2.654;2023-05-06T00:36:37;4.60;;;0.80;;
74660;SDS011;63191;39.566;2.654;2023-05-06T00:39:03;2.50;;;0.80;;
74660;SDS011;63191;39.566;2.654;2023-05-06T00:41:31;3.70;;;0.90;;
74660;SDS011;63191;39.566;2.654;2023-05-06T00:43:57;4.70;;;1.00;;
74660;SDS011;63191;39.566;2.654;2023-05-06T00:46:23;3.20;;;0.70;;
74660;SDS011;63191;39.566;2.654;2023-05-06T00:48:50;3.10;;;0.80;;
74660;SDS011;63191;39.566;2.654;2023-05-06T00:51:18;4.10;;;0.80;;
74660;SDS011;63191;39.566;2.654;2023-05-06T00:53:43;3.10;;;0.90;;
74660;SDS011;63191;39.566;2.654;2023-05-06T00:56:12;4.30;;;0.90;;
74660;SDS011;63191;39.566;2.654;2023-05-06T00:58:38;3.40;;;0.80;;
74660;SDS011;63191;39.566;2.654;2023-05-06T01:01:04;4.90;;;1.20;;
74660;SDS011;63191;39.566;2.654;2023-05-06T01:03:30;3.70;;;0.90;;
74660;SDS011;63191;39.566;2.654;2023-05-06T01:06:15;2.80;;;0.70;;
74660;SDS011;63191;39.566;2.654;2023-05-06T01:11:36;4.10;;;0.90;;
74660;SDS011;63191;39.566;2.654;2023-05-06T01:14:07;3.70;;;1.00;;
74660;SDS011;63191;39.566;2.654;2023-05-06T01:16:39;3.20;;;0.80;;
74660;SDS011;63191;39.566;2.654;2023-05-06T01:19:08;4.30;;;1.00;;
74660;SDS011;63191;39.566;2.654;2023-05-06T01:21:40;5.00;;;1.00;;
74660;SDS011;63191;39.566;2.654;2023-05-06T01:24:07;4.10;;;0.80;;
74660;SDS011;63191;39.566;2.654;2023-05-06T01:26:33;3.90;;;0.80;;
74660;SDS011;63191;39.566;2.654;2023-05-06T01:28:59;2.70;;;0.80;;
74660;SDS011;63191;39.566;2.654;2023-05-06T01:31:44;3.50;;;0.60;;
74660;SDS011;63191;39.566;2.654;2023-05-06T01:34:26;2.50;;;0.70;;
74660;SDS011;63191;39.566;2.654;2023-05-06T01:37:06;4.30;;;0.70;;
74660;SDS011;63191;39.566;2.654;2023-05-06T01:39:38;2.80;;;0.80;;
74660;SDS011;63191;39.566;2.654;2023-05-06T01:42:04;3.30;;;0.60;;
74660;SDS011;63191;39.566;2.654;2023-05-06T01:44:32;3.40;;;0.80;;
74660;SDS011;63191;39.566;2.654;2023-05-06T01:47:00;3.40;;;0.70;;
74660;SDS011;63191;39.566;2.654;2023-05-06T01:49:26;3.50;;;0.80;;
74660;SDS011;63191;39.566;2.654;2023-05-06T01:51:53;2.40;;;0.60;;
74660;SDS011;63191;39.566;2.654;2023-05-06T01:54:19;2.60;;;0.70;;
74660;SDS011;63191;39.566;2.654;2023-05-06T01:56:45;2.70;;;0.60;;
74660;SDS011;63191;39.566;2.654;2023-05-06T01:59:11;2.40;;;0.50;;
74660;SDS011;63191;39.566;2.654;2023-05-06T02:01:37;2.50;;;0.70;;
74660;SDS011;63191;39.566;2.654;2023-05-06T02:04:02;2.70;;;0.70;;
74660;SDS011;63191;39.566;2.654;2023-05-06T02:06:28;2.60;;;0.70;;
74660;SDS011;63191;39.566;2.654;2023-05-06T02:08:56;2.40;;;0.60;;
74660;SDS011;63191;39.566;2.654;2023-05-06T02:11:25;1.90;;;0.50;;
74660;SDS011;63191;39.566;2.654;2023-05-06T02:13:52;2.30;;;0.60;;
74660;SDS011;63191;39.566;2.654;2023-05-06T02:16:21;1.70;;;0.40;;
74660;SDS011;63191;39.566;2.654;2023-05-06T02:18:49;3.00;;;0.70;;
74660;SDS011;63191;39.566;2.654;2023-05-06T02:21:15;2.90;;;0.60;;
74660;SDS011;63191;39.566;2.654;2023-05-06T02:23:41;6.10;;;2.70;;
74660;SDS011;63191;39.566;2.654;2023-05-06T02:26:06;7.40;;;2.40;;
74660;SDS011;63191;39.566;2.654;2023-05-06T02:28:32;7.50;;;3.20;;
74660;SDS011;63191;39.566;2.654;2023-05-06T02:30:58;3.60;;;1.10;;
74660;SDS011;63191;39.566;2.654;2023-05-06T02:33:26;4.80;;;1.60;;
74660;SDS011;63191;39.566;2.654;2023-05-06T02:35:52;2.70;;;0.70;;
74660;SDS011;63191;39.566;2.654;2023-05-06T02:38:21;2.60;;;0.60;;
74660;SDS011;63191;39.566;2.654;2023-05-06T02:40:47;4.00;;;0.60;;
74660;SDS011;63191;39.566;2.654;2023-05-06T02:43:12;3.10;;;0.60;;
74660;SDS011;63191;39.566;2.654;2023-05-06T02:45:40;3.20;;;0.70;;
74660;SDS011;63191;39.566;2.654;2023-05-06T02:48:06;3.50;;;0.60;;
74660;SDS011;63191;39.566;2.654;2023-05-06T02:50:33;2.10;;;0.40;;
74660;SDS011;63191;39.566;2.654;2023-05-06T02:53:02;2.30;;;0.70;;
74660;SDS011;63191;39.566;2.654;2023-05-06T02:55:28;2.60;;;0.60;;
74660;SDS011;63191;39.566;2.654;2023-05-06T02:57:56;1.20;;;0.30;;
74660;SDS011;63191;39.566;2.654;2023-05-06T03:00:22;1.90;;;0.50;;
74660;SDS011;63191;39.566;2.654;2023-05-06T03:02:48;1.90;;;0.50;;
74660;SDS011;63191;39.566;2.654;2023-05-06T03:05:17;1.70;;;0.40;;
74660;SDS011;63191;39.566;2.654;2023-05-06T03:07:44;2.90;;;0.50;;
74660;SDS011;63191;39.566;2.654;2023-05-06T03:10:09;2.10;;;0.40;;
74660;SDS011;63191;39.566;2.654;2023-05-06T03:12:35;2.10;;;0.50;;
74660;SDS011;63191;39.566;2.654;2023-05-06T03:15:01;1.90;;;0.50;;
74660;SDS011;63191;39.566;2.654;2023-05-06T03:17:29;2.10;;;0.40;;
74660;SDS011;63191;39.566;2.654;2023-05-06T03:20:01;1.80;;;0.40;;
74660;SDS011;63191;39.566;2.654;2023-05-06T03:22:27;1.10;;;0.30;;
74660;SDS011;63191;39.566;2.654;2023-05-06T03:24:53;2.10;;;0.40;;
74660;SDS011;63191;39.566;2.654;2023-05-06T03:27:19;1.00;;;0.40;;
74660;SDS011;63191;39.566;2.654;2023-05-06T03:29:45;1.50;;;0.40;;
74660;SDS011;63191;39.566;2.654;2023-05-06T03:32:11;3.00;;;0.40;;
74660;SDS011;63191;39.566;2.654;2023-05-06T03:34:39;1.50;;;0.40;;
74660;SDS011;63191;39.566;2.654;2023-05-06T03:37:06;1.90;;;0.40;;
74660;SDS011;63191;39.566;2.654;2023-05-06T03:39:32;2.60;;;0.50;;
74660;SDS011;63191;39.566;2.654;2023-05-06T03:42:06;1.70;;;0.40;;
74660;SDS011;63191;39.566;2.654;2023-05-06T03:44:35;3.20;;;0.50;;
74660;SDS011;63191;39.566;2.654;2023-05-06T03:47:03;2.50;;;0.30;;
74660;SDS011;63191;39.566;2.654;2023-05-06T03:49:31;2.00;;;0.30;;
74660;SDS011;63191;39.566;2.654;2023-05-06T03:52:00;1.60;;;0.40;;
74660;SDS011;63191;39.566;2.654;2023-05-06T03:54:26;1.30;;;0.30;;
74660;SDS011;63191;39.566;2.654;2023-05-06T03:56:52;2.70;;;0.60;;
74660;SDS011;63191;39.566;2.654;2023-05-06T03:59:18;2.10;;;0.40;;
74660;SDS011;63191;39.566;2.654;2023-05-06T04:01:44;1.80;;;0.40;;
74660;SDS011;63191;39.566;2.654;2023-05-06T04:04:15;2.70;;;0.30;;
74660;SDS011;63191;39.566;2.654;2023-05-06T04:06:52;2.20;;;0.30;;
74660;SDS011;63191;39.566;2.654;2023-05-06T04:09:21;1.50;;;0.50;;
74660;SDS011;63191;39.566;2.654;2023-05-06T04:11:47;2.70;;;0.40;;
74660;SDS011;63191;39.566;2.654;2023-05-06T04:14:18;1.60;;;0.30;;
74660;SDS011;63191;39.566;2.654;2023-05-06T04:16:58;2.20;;;0.50;;
74660;SDS011;63191;39.566;2.654;2023-05-06T04:19:30;1.30;;;0.40;;
74660;SDS011;63191;39.566;2.654;2023-05-06T04:21:59;1.70;;;0.40;;
74660;SDS011;63191;39.566;2.654;2023-05-06T04:24:28;1.70;;;0.40;;
74660;SDS011;63191;39.566;2.654;2023-05-06T04:26:58;2.20;;;0.40;;
74660;SDS011;63191;39.566;2.654;2023-05-06T04:29:33;1.70;;;0.40;;
74660;SDS011;63191;39.566;2.654;2023-05-06T04:32:04;1.90;;;0.50;;
74660;SDS011;63191;39.566;2.654;2023-05-06T04:34:30;3.00;;;0.40;;
74660;SDS011;63191;39.566;2.654;2023-05-06T04:36:56;2.30;;;0.50;;
74660;SDS011;63191;39.566;2.654;2023-05-06T04:39:25;2.80;;;0.70;;
74660;SDS011;63191;39.566;2.654;2023-05-06T04:41:51;2.10;;;0.50;;
74660;SDS011;63191;39.566;2.654;2023-05-06T04:44:17;2.40;;;0.40;;
74660;SDS011;63191;39.566;2.654;2023-05-06T04:46:47;2.00;;;0.50;;
74660;SDS011;63191;39.566;2.654;2023-05-06T04:49:15;3.60;;;0.80;;
74660;SDS011;63191;39.566;2.654;2023-05-06T04:51:41;3.70;;;0.50;;
74660;SDS011;63191;39.566;2.654;2023-05-06T04:54:15;2.90;;;0.50;;
74660;SDS011;63191;39.566;2.654;2023-05-06T04:56:50;2.10;;;0.50;;
74660;SDS011;63191;39.566;2.654;2023-05-06T04:59:21;5.20;;;0.70;;
74660;SDS011;63191;39.566;2.654;2023-05-06T05:01:47;2.50;;;0.50;;
74660;SDS011;63191;39.566;2.654;2023-05-06T05:04:15;2.60;;;0.60;;
74660;SDS011;63191;39.566;2.654;2023-05-06T05:06:41;2.40;;;0.40;;
74660;SDS011;63191;39.566;2.654;2023-05-06T05:09:08;3.10;;;0.70;;
74660;SDS011;63191;39.566;2.654;2023-05-06T05:11:38;2.50;;;0.60;;
74660;SDS011;63191;39.566;2.654;2023-05-06T05:14:03;3.80;;;0.70;;
74660;SDS011;63191;39.566;2.654;2023-05-06T05:16:30;3.30;;;0.80;;
74660;SDS011;63191;39.566;2.654;2023-05-06T05:18:56;2.40;;;0.60;;
74660;SDS011;63191;39.566;2.654;2023-05-06T05:21:22;2.30;;;0.50;;
74660;SDS011;63191;39.566;2.654;2023-05-06T05:23:48;3.10;;;0.60;;
74660;SDS011;63191;39.566;2.654;2023-05-06T05:26:14;2.40;;;0.60;;
74660;SDS011;63191;39.566;2.654;2023-05-06T05:28:42;3.30;;;0.70;;
74660;SDS011;63191;39.566;2.654;2023-05-06T05:31:08;3.70;;;0.90;;
74660;SDS011;63191;39.566;2.654;2023-05-06T05:33:43;2.90;;;0.60;;
74660;SDS011;63191;39.566;2.654;2023-05-06T05:36:11;2.60;;;0.70;;
74660;SDS011;63191;39.566;2.654;2023-05-06T05:38:39;4.20;;;0.70;;
74660;SDS011;63191;39.566;2.654;2023-05-06T05:41:18;4.00;;;0.90;;
74660;SDS011;63191;39.566;2.654;2023-05-06T05:43:57;2.60;;;0.70;;
74660;SDS011;63191;39.566;2.654;2023-05-06T05:46:33;4.40;;;0.80;;
74660;SDS011;63191;39.566;2.654;2023-05-06T05:48:59;4.00;;;1.00;;
74660;SDS011;63191;39.566;2.654;2023-05-06T05:51:27;4.10;;;0.90;;
74660;SDS011;63191;39.566;2.654;2023-05-06T05:54:05;2.90;;;1.00;;
74660;SDS011;63191;39.566;2.654;2023-05-06T05:56:43;4.90;;;1.30;;
74660;SDS011;63191;39.566;2.654;2023-05-06T05:59:38;2.90;;;0.90;;
74660;SDS011;63191;39.566;2.654;2023-05-06T06:02:04;4.00;;;1.20;;
74660;SDS011;63191;39.566;2.654;2023-05-06T06:04:36;3.90;;;1.50;;
74660;SDS011;63191;39.566;2.654;2023-05-06T06:07:02;4.70;;;1.40;;
74660;SDS011;63191;39.566;2.654;2023-05-06T06:09:58;5.00;;;1.60;;
74660;SDS011;63191;39.566;2.654;2023-05-06T06:12:29;5.60;;;1.60;;
74660;SDS011;63191;39.566;2.654;2023-05-06T06:15:52;6.10;;;1.70;;
74660;SDS011;63191;39.566;2.654;2023-05-06T06:18:36;5.30;;;1.90;;
74660;SDS011;63191;39.566;2.654;2023-05-06T06:21:02;4.60;;;2.00;;
74660;SDS011;63191;39.566;2.654;2023-05-06T06:23:30;5.70;;;2.10;;
74660;SDS011;63191;39.566;2.654;2023-05-06T06:25:58;4.90;;;1.90;;
74660;SDS011;63191;39.566;2.654;2023-05-06T06:28:27;4.40;;;2.20;;
74660;SDS011;63191;39.566;2.654;2023-05-06T06:30:53;4.80;;;2.40;;
74660;SDS011;63191;39.566;2.654;2023-05-06T06:33:19;4.30;;;2.10;;
74660;SDS011;63191;39.566;2.654;2023-05-06T06:35:45;5.30;;;2.70;;
74660;SDS011;63191;39.566;2.654;2023-05-06T06:38:10;5.60;;;2.50;;
74660;SDS011;63191;39.566;2.654;2023-05-06T06:40:36;6.10;;;2.60;;
74660;SDS011;63191;39.566;2.654;2023-05-06T06:43:02;5.50;;;2.60;;
74660;SDS011;63191;39.566;2.654;2023-05-06T06:45:27;5.50;;;2.10;;
74660;SDS011;63191;39.566;2.654;2023-05-06T06:47:53;5.50;;;2.20;;
74660;SDS011;63191;39.566;2.654;2023-05-06T06:50:19;4.70;;;2.10;;
74660;SDS011;63191;39.566;2.654;2023-05-06T06:52:45;5.20;;;2.20;;
74660;SDS011;63191;39.566;2.654;2023-05-06T06:55:10;5.10;;;2.00;;
74660;SDS011;63191;39.566;2.654;2023-05-06T06:57:39;4.00;;;1.80;;
74660;SDS011;63191;39.566;2.654;2023-05-06T07:00:06;4.70;;;1.80;;
74660;SDS011;63191;39.566;2.654;2023-05-06T07:02:33;4.80;;;1.80;;
74660;SDS011;63191;39.566;2.654;2023-05-06T07:05:00;8.20;;;1.70;;
74660;SDS011;63191;39.566;2.654;2023-05-06T07:07:27;5.30;;;1.80;;
74660;SDS011;63191;39.566;2.654;2023-05-06T07:09:56;5.10;;;1.60;;
74660;SDS011;63191;39.566;2.654;2023-05-06T07:12:21;3.90;;;1.40;;
74660;SDS011;63191;39.566;2.654;2023-05-06T07:14:48;4.20;;;1.50;;
74660;SDS011;63191;39.566;2.654;2023-05-06T07:17:15;6.40;;;1.90;;
74660;SDS011;63191;39.566;2.654;2023-05-06T07:19:41;3.60;;;1.30;;
74660;SDS011;63191;39.566;2.654;2023-05-06T07:22:07;6.90;;;1.60;;
74660;SDS011;63191;39.566;2.654;2023-05-06T07:24:32;5.00;;;1.50;;
74660;SDS011;63191;39.566;2.654;2023-05-06T07:27:00;5.30;;;1.70;;
74660;SDS011;63191;39.566;2.654;2023-05-06T07:29:26;4.10;;;1.30;;
74660;SDS011;63191;39.566;2.654;2023-05-06T07:31:52;4.70;;;1.50;;
74660;SDS011;63191;39.566;2.654;2023-05-06T07:34:18;4.80;;;1.40;;
74660;SDS011;63191;39.566;2.654;2023-05-06T07:36:44;4.80;;;1.30;;
74660;SDS011;63191;39.566;2.654;2023-05-06T07:39:13;3.60;;;1.30;;
74660;SDS011;63191;39.566;2.654;2023-05-06T07:41:42;4.70;;;1.60;;
74660;SDS011;63191;39.566;2.654;2023-05-06T07:44:08;5.10;;;1.50;;
74660;SDS011;63191;39.566;2.654;2023-05-06T07:46:34;4.90;;;1.20;;
74660;SDS011;63191;39.566;2.654;2023-05-06T07:49:00;4.20;;;1.40;;
74660;SDS011;63191;39.566;2.654;2023-05-06T07:51:25;4.50;;;1.50;;
74660;SDS011;63191;39.566;2.654;2023-05-06T07:53:52;5.40;;;1.20;;
74660;SDS011;63191;39.566;2.654;2023-05-06T07:56:18;3.20;;;1.00;;
74660;SDS011;63191;39.566;2.654;2023-05-06T07:58:43;3.80;;;1.30;;
74660;SDS011;63191;39.566;2.654;2023-05-06T08:01:09;4.80;;;1.40;;
74660;SDS011;63191;39.566;2.654;2023-05-06T08:03:35;2.50;;;1.00;;
74660;SDS011;63191;39.566;2.654;2023-05-06T08:06:00;3.00;;;1.20;;
74660;SDS011;63191;39.566;2.654;2023-05-06T08:08:26;3.90;;;1.30;;
74660;SDS011;63191;39.566;2.654;2023-05-06T08:10:56;4.10;;;1.50;;
74660;SDS011;63191;39.566;2.654;2023-05-06T08:13:23;3.60;;;1.20;;
74660;SDS011;63191;39.566;2.654;2023-05-06T08:15:49;4.70;;;1.60;;
74660;SDS011;63191;39.566;2.654;2023-05-06T08:18:16;4.10;;;1.40;;
74660;SDS011;63191;39.566;2.654;2023-05-06T08:20:41;5.10;;;1.60;;
74660;SDS011;63191;39.566;2.654;2023-05-06T08:23:07;5.00;;;1.40;;
74660;SDS011;63191;39.566;2.654;2023-05-06T08:25:33;4.10;;;1.30;;
74660;SDS011;63191;39.566;2.654;2023-05-06T08:28:00;6.10;;;1.60;;
74660;SDS011;63191;39.566;2.654;2023-05-06T08:30:26;5.00;;;1.80;;
74660;SDS011;63191;39.566;2.654;2023-05-06T08:32:52;4.40;;;1.30;;
74660;SDS011;63191;39.566;2.654;2023-05-06T08:35:18;4.20;;;1.50;;
74660;SDS011;63191;39.566;2.654;2023-05-06T08:37:44;4.30;;;1.10;;
74660;SDS011;63191;39.566;2.654;2023-05-06T08:40:20;3.30;;;1.00;;
74660;SDS011;63191;39.566;2.654;2023-05-06T08:42:48;6.20;;;1.30;;
74660;SDS011;63191;39.566;2.654;2023-05-06T08:45:18;4.30;;;1.30;;
74660;SDS011;63191;39.566;2.654;2023-05-06T08:47:45;3.60;;;1.30;;
74660;SDS011;63191;39.566;2.654;2023-05-06T08:50:11;3.50;;;1.00;;
74660;SDS011;63191;39.566;2.654;2023-05-06T08:52:38;4.30;;;1.20;;
74660;SDS011;63191;39.566;2.654;2023-05-06T08:55:05;3.90;;;1.30;;
74660;SDS011;63191;39.566;2.654;2023-05-06T08:57:33;6.50;;;1.30;;
74660;SDS011;63191;39.566;2.654;2023-05-06T09:00:00;4.70;;;1.30;;
74660;SDS011;63191;39.566;2.654;2023-05-06T09:02:26;4.20;;;1.40;;
74660;SDS011;63191;39.566;2.654;2023-05-06T09:04:53;4.00;;;1.40;;
74660;SDS011;63191;39.566;2.654;2023-05-06T09:07:20;4.40;;;1.30;;
74660;SDS011;63191;39.566;2.654;2023-05-06T09:09:47;5.50;;;1.50;;
74660;SDS011;63191;39.566;2.654;2023-05-06T09:12:13;3.60;;;1.60;;
74660;SDS011;63191;39.566;2.654;2023-05-06T09:14:39;4.70;;;1.50;;
74660;SDS011;63191;39.566;2.654;2023-05-06T09:17:19;4.70;;;1.60;;
74660;SDS011;63191;39.566;2.654;2023-05-06T09:19:56;4.40;;;1.30;;
74660;SDS011;63191;39.566;2.654;2023-05-06T09:22:23;4.90;;;1.50;;
74660;SDS011;63191;39.566;2.654;2023-05-06T09:24:51;5.60;;;1.40;;
74660;SDS011;63191;39.566;2.654;2023-05-06T09:27:31;4.60;;;1.30;;
74660;SDS011;63191;39.566;2.654;2023-05-06T09:30:05;4.40;;;1.20;;
74660;SDS011;63191;39.566;2.654;2023-05-06T09:32:36;3.80;;;1.20;;
74660;SDS011;63191;39.566;2.654;2023-05-06T09:35:02;4.40;;;1.70;;
74660;SDS011;63191;39.566;2.654;2023-05-06T09:37:29;3.50;;;1.40;;
74660;SDS011;63191;39.566;2.654;2023-05-06T09:39:57;8.60;;;1.40;;
74660;SDS011;63191;39.566;2.654;2023-05-06T09:42:25;3.80;;;1.40;;
74660;SDS011;63191;39.566;2.654;2023-05-06T09:44:55;5.40;;;1.50;;
74660;SDS011;63191;39.566;2.654;2023-05-06T09:47:23;5.90;;;1.40;;
74660;SDS011;63191;39.566;2.654;2023-05-06T09:49:50;4.30;;;1.40;;
74660;SDS011;63191;39.566;2.654;2023-05-06T09:52:21;3.40;;;1.20;;
74660;SDS011;63191;39.566;2.654;2023-05-06T09:54:49;3.80;;;1.50;;
74660;SDS011;63191;39.566;2.654;2023-05-06T09:57:15;3.70;;;1.80;;
74660;SDS011;63191;39.566;2.654;2023-05-06T09:59:42;4.20;;;1.80;;
74660;SDS011;63191;39.566;2.654;2023-05-06T10:02:18;3.70;;;1.70;;
74660;SDS011;63191;39.566;2.654;2023-05-06T10:04:44;3.70;;;1.40;;
74660;SDS011;63191;39.566;2.654;2023-05-06T10:07:13;4.00;;;1.30;;
74660;SDS011;63191;39.566;2.654;2023-05-06T10:09:42;3.70;;;1.50;;
74660;SDS011;63191;39.566;2.654;2023-05-06T10:12:08;4.00;;;1.50;;
74660;SDS011;63191;39.566;2.654;2023-05-06T10:14:37;4.10;;;1.40;;
74660;SDS011;63191;39.566;2.654;2023-05-06T10:17:09;5.10;;;1.70;;
74660;SDS011;63191;39.566;2.654;2023-05-06T10:19:43;7.00;;;2.20;;
74660;SDS011;63191;39.566;2.654;2023-05-06T10:27:58;3.20;;;1.60;;
74660;SDS011;63191;39.566;2.654;2023-05-06T10:30:25;10.50;;;3.30;;
74660;SDS011;63191;39.566;2.654;2023-05-06T10:32:54;19.10;;;6.10;;
74660;SDS011;63191;39.566;2.654;2023-05-06T10:38:02;5.40;;;1.90;;
74660;SDS011;63191;39.566;2.654;2023-05-06T10:40:30;4.30;;;1.80;;
74660;SDS011;63191;39.566;2.654;2023-05-06T10:43:49;5.00;;;2.10;;
74660;SDS011;63191;39.566;2.654;2023-05-06T10:46:15;10.60;;;3.40;;
74660;SDS011;63191;39.566;2.654;2023-05-06T10:51:34;5.40;;;2.40;;
74660;SDS011;63191;39.566;2.654;2023-05-06T10:54:10;4.90;;;1.80;;
74660;SDS011;63191;39.566;2.654;2023-05-06T10:59:12;4.10;;;1.50;;
74660;SDS011;63191;39.566;2.654;2023-05-06T11:01:40;7.80;;;3.00;;
74660;SDS011;63191;39.566;2.654;2023-05-06T11:04:08;9.90;;;4.30;;
74660;SDS011;63191;39.566;2.654;2023-05-06T11:09:17;5.70;;;2.30;;
74660;SDS011;63191;39.566;2.654;2023-05-06T11:12:01;3.90;;;1.80;;
74660;SDS011;63191;39.566;2.654;2023-05-06T11:14:32;5.10;;;1.80;;
74660;SDS011;63191;39.566;2.654;2023-05-06T11:17:04;5.40;;;2.20;;
74660;SDS011;63191;39.566;2.654;2023-05-06T11:19:32;5.70;;;2.40;;
74660;SDS011;63191;39.566;2.654;2023-05-06T11:22:01;6.70;;;2.50;;
74660;SDS011;63191;39.566;2.654;2023-05-06T11:24:30;5.20;;;2.80;;
74660;SDS011;63191;39.566;2.654;2023-05-06T11:27:02;6.10;;;2.40;;
74660;SDS011;63191;39.566;2.654;2023-05-06T11:29:29;4.60;;;2.30;;
74660;SDS011;63191;39.566;2.654;2023-05-06T11:31:56;5.00;;;2.30;;
74660;SDS011;63191;39.566;2.654;2023-05-06T11:36:59;4.40;;;2.30;;
74660;SDS011;63191;39.566;2.654;2023-05-06T11:39:31;4.20;;;1.90;;
74660;SDS011;63191;39.566;2.654;2023-05-06T11:42:26;4.50;;;2.00;;
74660;SDS011;63191;39.566;2.654;2023-05-06T11:44:54;3.20;;;1.90;;
74660;SDS011;63191;39.566;2.654;2023-05-06T11:47:21;4.30;;;1.90;;
74660;SDS011;63191;39.566;2.654;2023-05-06T11:49:52;6.10;;;2.10;;
74660;SDS011;63191;39.566;2.654;2023-05-06T11:52:19;4.90;;;1.90;;
74660;SDS011;63191;39.566;2.654;2023-05-06T11:54:45;5.00;;;2.00;;
74660;SDS011;63191;39.566;2.654;2023-05-06T11:57:12;5.10;;;2.00;;
74660;SDS011;63191;39.566;2.654;2023-05-06T11:59:38;5.00;;;1.90;;
74660;SDS011;63191;39.566;2.654;2023-05-06T12:02:09;4.60;;;1.80;;
74660;SDS011;63191;39.566;2.654;2023-05-06T12:04:44;8.00;;;1.70;;
74660;SDS011;63191;39.566;2.654;2023-05-06T12:07:13;6.40;;;1.80;;
74660;SDS011;63191;39.566;2.654;2023-05-06T12:09:47;4.60;;;1.40;;
74660;SDS011;63191;39.566;2.654;2023-05-06T12:12:15;4.40;;;1.80;;
74660;SDS011;63191;39.566;2.654;2023-05-06T12:14:44;6.10;;;1.50;;
74660;SDS011;63191;39.566;2.654;2023-05-06T12:17:11;2.30;;;1.10;;
74660;SDS011;63191;39.566;2.654;2023-05-06T12:19:37;5.80;;;1.50;;
74660;SDS011;63191;39.566;2.654;2023-05-06T12:22:20;7.50;;;1.70;;
74660;SDS011;63191;39.566;2.654;2023-05-06T12:24:48;6.40;;;1.40;;
74660;SDS011;63191;39.566;2.654;2023-05-06T12:27:29;5.00;;;1.60;;
74660;SDS011;63191;39.566;2.654;2023-05-06T12:29:56;5.00;;;1.60;;
74660;SDS011;63191;39.566;2.654;2023-05-06T12:32:21;4.90;;;1.70;;
74660;SDS011;63191;39.566;2.654;2023-05-06T12:34:48;6.10;;;1.80;;
74660;SDS011;63191;39.566;2.654;2023-05-06T12:37:26;3.80;;;1.50;;
74660;SDS011;63191;39.566;2.654;2023-05-06T12:39:52;6.70;;;1.70;;
74660;SDS011;63191;39.566;2.654;2023-05-06T12:42:20;5.40;;;1.90;;
74660;SDS011;63191;39.566;2.654;2023-05-06T12:44:46;6.50;;;1.90;;
74660;SDS011;63191;39.566;2.654;2023-05-06T12:47:23;6.80;;;2.20;;
74660;SDS011;63191;39.566;2.654;2023-05-06T12:49:51;6.40;;;1.90;;
74660;SDS011;63191;39.566;2.654;2023-05-06T12:52:27;5.50;;;2.00;;
74660;SDS011;63191;39.566;2.654;2023-05-06T12:54:54;7.40;;;2.00;;
74660;SDS011;63191;39.566;2.654;2023-05-06T12:57:20;4.50;;;1.40;;
74660;SDS011;63191;39.566;2.654;2023-05-06T12:59:47;4.40;;;1.50;;
74660;SDS011;63191;39.566;2.654;2023-05-06T13:02:13;8.70;;;2.20;;
74660;SDS011;63191;39.566;2.654;2023-05-06T13:04:40;5.80;;;1.80;;
74660;SDS011;63191;39.566;2.654;2023-05-06T13:07:06;5.80;;;1.60;;
74660;SDS011;63191;39.566;2.654;2023-05-06T13:09:31;5.20;;;1.50;;
74660;SDS011;63191;39.566;2.654;2023-05-06T13:11:58;5.40;;;1.70;;
74660;SDS011;63191;39.566;2.654;2023-05-06T13:14:25;4.80;;;1.70;;
74660;SDS011;63191;39.566;2.654;2023-05-06T13:16:52;5.00;;;1.60;;
74660;SDS011;63191;39.566;2.654;2023-05-06T13:19:18;5.50;;;1.70;;
74660;SDS011;63191;39.566;2.654;2023-05-06T13:21:44;7.60;;;2.00;;
74660;SDS011;63191;39.566;2.654;2023-05-06T13:24:10;7.20;;;1.80;;
74660;SDS011;63191;39.566;2.654;2023-05-06T13:26:36;5.30;;;1.70;;
74660;SDS011;63191;39.566;2.654;2023-05-06T13:29:02;4.70;;;1.30;;
74660;SDS011;63191;39.566;2.654;2023-05-06T13:31:29;5.30;;;1.60;;
74660;SDS011;63191;39.566;2.654;2023-05-06T13:33:54;6.00;;;2.00;;
74660;SDS011;63191;39.566;2.654;2023-05-06T13:36:21;6.40;;;2.00;;
74660;SDS011;63191;39.566;2.654;2023-05-06T13:38:51;7.40;;;2.70;;
74660;SDS011;63191;39.566;2.654;2023-05-06T13:41:18;5.70;;;2.40;;
74660;SDS011;63191;39.566;2.654;2023-05-06T13:43:43;5.80;;;2.50;;
74660;SDS011;63191;39.566;2.654;2023-05-06T13:46:09;5.00;;;2.50;;
74660;SDS011;63191;39.566;2.654;2023-05-06T13:48:35;7.80;;;2.60;;
74660;SDS011;63191;39.566;2.654;2023-05-06T13:51:01;5.40;;;2.60;;
74660;SDS011;63191;39.566;2.654;2023-05-06T13:53:27;6.00;;;2.70;;
74660;SDS011;63191;39.566;2.654;2023-05-06T13:55:52;7.30;;;4.30;;
74660;SDS011;63191;39.566;2.654;2023-05-06T13:58:18;6.90;;;3.50;;
74660;SDS011;63191;39.566;2.654;2023-05-06T14:00:44;8.40;;;3.30;;
74660;SDS011;63191;39.566;2.654;2023-05-06T14:03:10;6.90;;;2.80;;
74660;SDS011;63191;39.566;2.654;2023-05-06T14:05:35;5.70;;;2.40;;
74660;SDS011;63191;39.566;2.654;2023-05-06T14:08:01;7.20;;;2.90;;
74660;SDS011;63191;39.566;2.654;2023-05-06T14:10:27;6.50;;;2.50;;
74660;SDS011;63191;39.566;2.654;2023-05-06T14:12:52;6.10;;;2.60;;
74660;SDS011;63191;39.566;2.654;2023-05-06T14:15:18;5.80;;;2.20;;
74660;SDS011;63191;39.566;2.654;2023-05-06T14:17:44;5.40;;;2.00;;
74660;SDS011;63191;39.566;2.654;2023-05-06T14:20:11;3.60;;;1.70;;
74660;SDS011;63191;39.566;2.654;2023-05-06T14:22:39;7.70;;;2.30;;
74660;SDS011;63191;39.566;2.654;2023-05-06T14:25:05;5.90;;;2.10;;
74660;SDS011;63191;39.566;2.654;2023-05-06T14:27:32;4.70;;;1.90;;
74660;SDS011;63191;39.566;2.654;2023-05-06T14:29:58;6.80;;;1.80;;
74660;SDS011;63191;39.566;2.654;2023-05-06T14:32:23;8.20;;;2.10;;
74660;SDS011;63191;39.566;2.654;2023-05-06T14:34:49;5.80;;;1.80;;
74660;SDS011;63191;39.566;2.654;2023-05-06T14:37:15;7.10;;;2.10;;
74660;SDS011;63191;39.566;2.654;2023-05-06T14:39:42;4.70;;;1.80;;
74660;SDS011;63191;39.566;2.654;2023-05-06T14:42:08;4.90;;;1.80;;
74660;SDS011;63191;39.566;2.654;2023-05-06T14:44:34;4.30;;;1.50;;
74660;SDS011;63191;39.566;2.654;2023-05-06T14:47:00;4.70;;;1.40;;
74660;SDS011;63191;39.566;2.654;2023-05-06T14:49:26;4.00;;;1.50;;
74660;SDS011;63191;39.566;2.654;2023-05-06T14:51:52;5.60;;;1.30;;
74660;SDS011;63191;39.566;2.654;2023-05-06T14:54:18;4.50;;;1.40;;
74660;SDS011;63191;39.566;2.654;2023-05-06T14:56:44;6.70;;;1.40;;
74660;SDS011;63191;39.566;2.654;2023-05-06T14:59:11;8.50;;;1.50;;
74660;SDS011;63191;39.566;2.654;2023-05-06T15:01:37;4.90;;;1.50;;
74660;SDS011;63191;39.566;2.654;2023-05-06T15:04:04;3.80;;;1.60;;
74660;SDS011;63191;39.566;2.654;2023-05-06T15:06:29;6.00;;;1.60;;
74660;SDS011;63191;39.566;2.654;2023-05-06T15:08:58;5.20;;;1.30;;
74660;SDS011;63191;39.566;2.654;2023-05-06T15:11:25;5.40;;;1.40;;
74660;SDS011;63191;39.566;2.654;2023-05-06T15:13:51;5.20;;;1.30;;
74660;SDS011;63191;39.566;2.654;2023-05-06T15:16:16;5.20;;;1.40;;